createdAt,value
2019-01-02T00:00:59.579Z,1009.63
2019-01-02T00:01:59.601Z,1009.65
2019-01-02T00:02:59.619Z,1009.67
2019-01-02T00:03:59.635Z,1009.64
2019-01-02T00:04:59.654Z,1009.58
2019-01-02T00:05:59.668Z,1009.64
2019-01-02T00:06:59.683Z,1009.57
2019-01-02T00:07:59.702Z,1009.65
2019-01-02T00:08:59.721Z,1009.62
2019-01-02T00:09:59.738Z,1009.61
2019-01-02T00:10:59.755Z,1009.64
2019-01-02T00:11:59.772Z,1009.68
2019-01-02T00:12:59.795Z,1009.72
2019-01-02T00:13:59.814Z,1009.72
2019-01-02T00:14:59.825Z,1009.76
2019-01-02T00:15:59.844Z,1009.72
2019-01-02T00:16:59.863Z,1009.65
2019-01-02T00:17:59.878Z,1009.63
2019-01-02T00:18:59.898Z,1009.59
2019-01-02T00:19:59.914Z,1009.59
2019-01-02T00:20:59.936Z,1009.61
2019-01-02T00:21:59.949Z,1009.61
2019-01-02T00:22:59.968Z,1009.6
2019-01-02T00:23:59.984Z,1009.65
2019-01-02T00:25:00.006Z,1009.59
2019-01-02T00:26:00.027Z,1009.65
2019-01-02T00:27:00.037Z,1009.58
2019-01-02T00:28:00.060Z,1009.62
2019-01-02T00:29:00.072Z,1009.6
2019-01-02T00:30:00.132Z,1009.64
2019-01-02T00:31:00.108Z,1009.61
2019-01-02T00:32:00.131Z,1009.63
2019-01-02T00:33:00.148Z,1009.6
2019-01-02T00:34:00.160Z,1009.65
2019-01-02T00:35:00.181Z,1009.68
2019-01-02T00:36:00.199Z,1009.71
2019-01-02T00:37:00.213Z,1009.69
2019-01-02T00:38:00.232Z,1009.8
2019-01-02T00:39:00.249Z,1009.79
2019-01-02T00:40:00.267Z,1009.8
2019-01-02T00:41:00.285Z,1009.74
2019-01-02T00:42:00.309Z,1009.73
2019-01-02T00:43:00.325Z,1009.73
2019-01-02T00:44:00.337Z,1009.76
2019-01-02T00:45:00.356Z,1009.84
2019-01-02T00:46:00.377Z,1009.77
2019-01-02T00:47:00.392Z,1009.69
2019-01-02T00:48:00.412Z,1009.62
2019-01-02T00:49:00.431Z,1009.61
2019-01-02T00:50:00.446Z,1009.6
2019-01-02T00:51:00.459Z,1009.65
2019-01-02T00:52:00.483Z,1009.64
2019-01-02T00:53:00.497Z,1009.72
2019-01-02T00:54:00.514Z,1009.73
2019-01-02T00:55:00.537Z,1009.67
2019-01-02T00:56:00.549Z,1009.63
2019-01-02T00:57:00.571Z,1009.67
2019-01-02T00:58:00.585Z,1009.7
2019-01-02T00:59:00.601Z,1009.7
2019-01-02T01:00:00.621Z,1009.69
2019-01-02T01:01:00.645Z,1009.61
2019-01-02T01:02:00.659Z,1009.65
2019-01-02T01:03:00.674Z,1009.64
2019-01-02T01:04:00.691Z,1009.6
2019-01-02T01:05:00.713Z,1009.64
2019-01-02T01:06:00.729Z,1009.61
2019-01-02T01:07:00.748Z,1009.6
2019-01-02T01:08:00.764Z,1009.65
2019-01-02T01:09:00.783Z,1009.62
2019-01-02T01:10:00.799Z,1009.61
2019-01-02T01:11:00.813Z,1009.57
2019-01-02T01:12:00.835Z,1009.59
2019-01-02T01:13:00.853Z,1009.6
2019-01-02T01:14:00.871Z,1009.65
2019-01-02T01:15:00.889Z,1009.65
2019-01-02T01:16:00.906Z,1009.63
2019-01-02T01:17:00.924Z,1009.72
2019-01-02T01:18:00.935Z,1009.74
2019-01-02T01:19:00.960Z,1009.75
2019-01-02T01:20:00.977Z,1009.74
2019-01-02T01:21:00.994Z,1009.76
2019-01-02T01:22:01.012Z,1009.78
2019-01-02T01:23:01.030Z,1009.75
2019-01-02T01:24:01.043Z,1009.71
2019-01-02T01:25:01.060Z,1009.76
2019-01-02T01:26:02.232Z,1009.75
2019-01-02T01:27:01.096Z,1009.83
2019-01-02T01:28:01.114Z,1009.82
2019-01-02T01:29:01.134Z,1009.96
2019-01-02T01:30:01.148Z,1009.92
2019-01-02T01:31:01.170Z,1009.9
2019-01-02T01:32:01.186Z,1009.92
2019-01-02T01:33:01.203Z,1009.97
2019-01-02T01:34:01.223Z,1009.99
2019-01-02T01:35:01.241Z,1010
2019-01-02T01:36:01.255Z,1009.96
2019-01-02T01:37:01.278Z,1009.97
2019-01-02T01:38:01.295Z,1009.98
2019-01-02T01:39:01.311Z,1009.93
2019-01-02T01:40:01.326Z,1009.96
2019-01-02T01:41:01.347Z,1009.91
2019-01-02T01:42:01.360Z,1010
2019-01-02T01:43:01.382Z,1009.98
2019-01-02T01:44:01.395Z,1009.95
2019-01-02T01:45:01.419Z,1010
2019-01-02T01:46:01.433Z,1010.02
2019-01-02T01:47:01.456Z,1010.01
2019-01-02T01:48:01.467Z,1010
2019-01-02T01:49:01.490Z,1009.94
2019-01-02T01:50:01.507Z,1010.04
2019-01-02T01:51:01.525Z,1010.07
2019-01-02T01:52:01.538Z,1010.09
2019-01-02T01:53:01.569Z,1010.1
2019-01-02T01:54:01.576Z,1010.19
2019-01-02T01:55:01.592Z,1010.15
2019-01-02T01:56:01.608Z,1010.17
2019-01-02T01:57:01.624Z,1010.14
2019-01-02T01:58:01.642Z,1010.13
2019-01-02T01:59:01.660Z,1010.2
2019-01-02T02:00:01.678Z,1010.2
2019-01-02T02:01:01.696Z,1010.22
2019-01-02T02:02:01.718Z,1010.23
2019-01-02T02:03:01.731Z,1010.26
2019-01-02T02:04:01.746Z,1010.29
2019-01-02T02:05:01.772Z,1010.27
2019-01-02T02:06:01.784Z,1010.18
2019-01-02T02:07:01.806Z,1010.21
2019-01-02T02:08:01.818Z,1010.25
2019-01-02T02:09:01.837Z,1010.22
2019-01-02T02:10:01.860Z,1010.2
2019-01-02T02:11:01.872Z,1010.23
2019-01-02T02:12:01.894Z,1010.2
2019-01-02T02:13:01.911Z,1010.24
2019-01-02T02:14:01.930Z,1010.26
2019-01-02T02:15:01.950Z,1010.24
2019-01-02T02:16:01.967Z,1010.27
2019-01-02T02:17:01.980Z,1010.31
2019-01-02T02:18:01.995Z,1010.29
2019-01-02T02:19:02.017Z,1010.31
2019-01-02T02:20:02.029Z,1010.3
2019-01-02T02:21:02.047Z,1010.26
2019-01-02T02:22:02.065Z,1010.23
2019-01-02T02:23:02.083Z,1010.18
2019-01-02T02:24:02.106Z,1010.25
2019-01-02T02:25:02.123Z,1010.29
2019-01-02T02:26:02.137Z,1010.3
2019-01-02T02:27:02.157Z,1010.34
2019-01-02T02:28:02.172Z,1010.38
2019-01-02T02:29:02.189Z,1010.43
2019-01-02T02:30:02.213Z,1010.4
2019-01-02T02:31:02.223Z,1010.31
2019-01-02T02:32:02.241Z,1010.33
2019-01-02T02:33:02.258Z,1010.22
2019-01-02T02:34:02.277Z,1010.25
2019-01-02T02:35:02.295Z,1010.33
2019-01-02T02:36:02.312Z,1010.31
2019-01-02T02:37:02.332Z,1010.31
2019-01-02T02:38:02.349Z,1010.35
2019-01-02T02:39:02.369Z,1010.3
2019-01-02T02:40:02.388Z,1010.29
2019-01-02T02:41:02.400Z,1010.32
2019-01-02T02:42:02.422Z,1010.37
2019-01-02T02:43:02.435Z,1010.38
2019-01-02T02:44:02.453Z,1010.45
2019-01-02T02:45:02.477Z,1010.53
2019-01-02T02:46:02.494Z,1010.45
2019-01-02T02:47:02.514Z,1010.47
2019-01-02T02:48:02.522Z,1010.49
2019-01-02T02:49:02.541Z,1010.5
2019-01-02T02:50:02.557Z,1010.54
2019-01-02T02:51:02.575Z,1010.56
2019-01-02T02:52:02.594Z,1010.6
2019-01-02T02:53:02.616Z,1010.53
2019-01-02T02:54:02.629Z,1010.52
2019-01-02T02:55:02.646Z,1010.54
2019-01-02T02:56:02.663Z,1010.53
2019-01-02T02:57:02.688Z,1010.6
2019-01-02T02:58:02.700Z,1010.64
2019-01-02T02:59:02.721Z,1010.58
2019-01-02T03:00:02.737Z,1010.6
2019-01-02T03:01:02.762Z,1010.6
2019-01-02T03:02:02.771Z,1010.57
2019-01-02T03:03:02.790Z,1010.49
2019-01-02T03:04:02.803Z,1010.5
2019-01-02T03:05:02.826Z,1010.53
2019-01-02T03:06:02.858Z,1010.5
2019-01-02T03:07:02.859Z,1010.55
2019-01-02T03:08:02.879Z,1010.52
2019-01-02T03:09:02.897Z,1010.57
2019-01-02T03:10:02.913Z,1010.62
2019-01-02T03:11:02.925Z,1010.63
2019-01-02T03:12:02.949Z,1010.7
2019-01-02T03:13:02.967Z,1010.78
2019-01-02T03:14:02.983Z,1010.83
2019-01-02T03:15:02.999Z,1010.81
2019-01-02T03:16:03.020Z,1010.87
2019-01-02T03:17:03.030Z,1010.86
2019-01-02T03:18:03.048Z,1010.82
2019-01-02T03:19:03.070Z,1010.85
2019-01-02T03:20:03.090Z,1010.84
2019-01-02T03:21:03.105Z,1010.96
2019-01-02T03:22:03.123Z,1010.93
2019-01-02T03:23:03.140Z,1010.97
2019-01-02T03:24:03.154Z,1011.01
2019-01-02T03:25:03.175Z,1010.98
2019-01-02T03:26:03.190Z,1010.97
2019-01-02T03:27:03.206Z,1010.99
2019-01-02T03:28:03.225Z,1011.04
2019-01-02T03:29:03.242Z,1011.03
2019-01-02T03:30:03.260Z,1010.98
2019-01-02T03:31:03.284Z,1011
2019-01-02T03:32:03.301Z,1011.05
2019-01-02T03:33:03.311Z,1011.05
2019-01-02T03:34:03.334Z,1011.08
2019-01-02T03:35:03.351Z,1011.04
2019-01-02T03:36:03.364Z,1011.06
2019-01-02T03:37:03.386Z,1011.11
2019-01-02T03:38:03.399Z,1011.1
2019-01-02T03:39:03.421Z,1011.08
2019-01-02T03:40:03.439Z,1011.09
2019-01-02T03:41:03.457Z,1011.1
2019-01-02T03:42:03.470Z,1011.06
2019-01-02T03:43:03.494Z,1011.07
2019-01-02T03:44:03.504Z,1011.2
2019-01-02T03:45:03.527Z,1011.26
2019-01-02T03:46:03.543Z,1011.23
2019-01-02T03:47:03.556Z,1011.31
2019-01-02T03:48:03.578Z,1011.33
2019-01-02T03:49:03.592Z,1011.31
2019-01-02T03:50:03.609Z,1011.25
2019-01-02T03:51:03.626Z,1011.24
2019-01-02T03:52:03.645Z,1011.26
2019-01-02T03:53:03.662Z,1011.27
2019-01-02T03:54:03.679Z,1011.31
2019-01-02T03:55:03.701Z,1011.29
2019-01-02T03:56:03.718Z,1011.35
2019-01-02T03:57:03.732Z,1011.33
2019-01-02T03:58:03.748Z,1011.38
2019-01-02T03:59:03.775Z,1011.39
2019-01-02T04:00:03.787Z,1011.38
2019-01-02T04:01:03.800Z,1011.38
2019-01-02T04:02:03.827Z,1011.42
2019-01-02T04:03:03.840Z,1011.4
2019-01-02T04:04:03.855Z,1011.36
2019-01-02T04:05:03.871Z,1011.37
2019-01-02T04:06:03.888Z,1011.37
2019-01-02T04:07:03.912Z,1011.41
2019-01-02T04:08:03.928Z,1011.4
2019-01-02T04:09:03.946Z,1011.37
2019-01-02T04:10:03.964Z,1011.4
2019-01-02T04:11:03.981Z,1011.38
2019-01-02T04:12:03.995Z,1011.37
2019-01-02T04:13:04.015Z,1011.34
2019-01-02T04:14:04.033Z,1011.33
2019-01-02T04:15:04.047Z,1011.27
2019-01-02T04:16:04.068Z,1011.31
2019-01-02T04:17:04.085Z,1011.36
2019-01-02T04:18:04.100Z,1011.37
2019-01-02T04:19:04.116Z,1011.34
2019-01-02T04:20:04.140Z,1011.34
2019-01-02T04:21:04.152Z,1011.37
2019-01-02T04:22:04.168Z,1011.33
2019-01-02T04:23:04.190Z,1011.37
2019-01-02T04:24:04.209Z,1011.38
2019-01-02T04:25:04.225Z,1011.36
2019-01-02T04:26:04.242Z,1011.38
2019-01-02T04:27:04.258Z,1011.33
2019-01-02T04:28:04.273Z,1011.37
2019-01-02T04:29:04.291Z,1011.38
2019-01-02T04:30:04.321Z,1011.37
2019-01-02T04:31:04.330Z,1011.41
2019-01-02T04:32:04.342Z,1011.4
2019-01-02T04:33:04.361Z,1011.44
2019-01-02T04:34:04.380Z,1011.43
2019-01-02T04:35:04.398Z,1011.4
2019-01-02T04:36:04.416Z,1011.45
2019-01-02T04:37:04.430Z,1011.36
2019-01-02T04:38:04.447Z,1011.41
2019-01-02T04:39:04.471Z,1011.46
2019-01-02T04:40:04.487Z,1011.4
2019-01-02T04:41:04.497Z,1011.42
2019-01-02T04:42:04.522Z,1011.38
2019-01-02T04:43:04.538Z,1011.38
2019-01-02T04:44:04.551Z,1011.45
2019-01-02T04:45:04.569Z,1011.45
2019-01-02T04:46:04.588Z,1011.47
2019-01-02T04:47:04.608Z,1011.44
2019-01-02T04:48:04.624Z,1011.45
2019-01-02T04:49:04.641Z,1011.44
2019-01-02T04:50:04.654Z,1011.43
2019-01-02T04:51:04.675Z,1011.4
2019-01-02T04:52:04.693Z,1011.44
2019-01-02T04:53:04.706Z,1011.43
2019-01-02T04:54:04.729Z,1011.44
2019-01-02T04:55:04.747Z,1011.46
2019-01-02T04:56:04.757Z,1011.44
2019-01-02T04:57:04.780Z,1011.41
2019-01-02T04:58:04.793Z,1011.42
2019-01-02T04:59:04.816Z,1011.48
2019-01-02T05:00:04.827Z,1011.48
2019-01-02T05:01:04.844Z,1011.49
2019-01-02T05:02:04.867Z,1011.47
2019-01-02T05:03:04.881Z,1011.49
2019-01-02T05:04:04.903Z,1011.51
2019-01-02T05:05:04.914Z,1011.51
2019-01-02T05:06:04.936Z,1011.48
2019-01-02T05:07:04.948Z,1011.53
2019-01-02T05:08:04.970Z,1011.48
2019-01-02T05:09:04.983Z,1011.5
2019-01-02T05:10:05.000Z,1011.49
2019-01-02T05:11:05.017Z,1011.53
2019-01-02T05:12:05.035Z,1011.53
2019-01-02T05:13:05.056Z,1011.52
2019-01-02T05:14:05.074Z,1011.48
2019-01-02T05:15:05.092Z,1011.51
2019-01-02T05:16:05.105Z,1011.49
2019-01-02T05:17:05.121Z,1011.52
2019-01-02T05:18:05.141Z,1011.54
2019-01-02T05:19:05.160Z,1011.5
2019-01-02T05:20:05.172Z,1011.55
2019-01-02T05:21:05.194Z,1011.53
2019-01-02T05:22:05.212Z,1011.55
2019-01-02T05:23:05.227Z,1011.58
2019-01-02T05:24:05.242Z,1011.54
2019-01-02T05:25:05.262Z,1011.62
2019-01-02T05:26:05.279Z,1011.58
2019-01-02T05:27:05.297Z,1011.59
2019-01-02T05:28:05.315Z,1011.56
2019-01-02T05:29:05.333Z,1011.52
2019-01-02T05:30:05.343Z,1011.54
2019-01-02T05:31:05.362Z,1011.57
2019-01-02T05:32:05.382Z,1011.62
2019-01-02T05:33:05.400Z,1011.6
2019-01-02T05:34:05.413Z,1011.61
2019-01-02T05:35:05.431Z,1011.61
2019-01-02T05:36:05.446Z,1011.62
2019-01-02T05:37:05.466Z,1011.65
2019-01-02T05:38:05.488Z,1011.64
2019-01-02T05:39:05.500Z,1011.7
2019-01-02T05:40:05.519Z,1011.71
2019-01-02T05:41:05.533Z,1011.71
2019-01-02T05:42:05.554Z,1011.74
2019-01-02T05:43:05.573Z,1011.78
2019-01-02T05:44:05.590Z,1011.79
2019-01-02T05:45:05.603Z,1011.8
2019-01-02T05:46:05.626Z,1011.83
2019-01-02T05:47:05.643Z,1011.85
2019-01-02T05:48:05.655Z,1011.89
2019-01-02T05:49:05.676Z,1011.95
2019-01-02T05:50:05.690Z,1011.93
2019-01-02T05:51:05.712Z,1012
2019-01-02T05:52:05.729Z,1012
2019-01-02T05:53:05.746Z,1011.96
2019-01-02T05:54:05.762Z,1011.97
2019-01-02T05:55:05.775Z,1011.97
2019-01-02T05:56:05.799Z,1012.01
2019-01-02T05:57:05.810Z,1012.01
2019-01-02T05:58:05.830Z,1012.04
2019-01-02T05:59:05.849Z,1012.04
2019-01-02T06:00:05.866Z,1012.02
2019-01-02T06:01:05.880Z,1012.01
2019-01-02T06:02:05.896Z,1012.02
2019-01-02T06:03:05.915Z,1012
2019-01-02T06:04:05.935Z,1012.03
2019-01-02T06:05:05.953Z,1012.02
2019-01-02T06:06:05.968Z,1012.03
2019-01-02T06:07:05.987Z,1012.03
2019-01-02T06:08:06.001Z,1012.1
2019-01-02T06:09:06.017Z,1012.07
2019-01-02T06:10:06.038Z,1012.06
2019-01-02T06:11:06.053Z,1012.14
2019-01-02T06:12:06.073Z,1012.17
2019-01-02T06:13:06.090Z,1012.2
2019-01-02T06:14:06.119Z,1012.2
2019-01-02T06:15:06.120Z,1012.15
2019-01-02T06:16:06.147Z,1012.21
2019-01-02T06:17:06.161Z,1012.21
2019-01-02T06:18:06.184Z,1012.23
2019-01-02T06:19:06.195Z,1012.29
2019-01-02T06:20:06.207Z,1012.25
2019-01-02T06:21:06.222Z,1012.2
2019-01-02T06:22:06.240Z,1012.22
2019-01-02T06:23:06.263Z,1012.23
2019-01-02T06:24:06.278Z,1012.25
2019-01-02T06:25:06.293Z,1012.23
2019-01-02T06:26:06.316Z,1012.25
2019-01-02T06:27:06.326Z,1012.17
2019-01-02T06:28:06.347Z,1012.19
2019-01-02T06:29:06.366Z,1012.23
2019-01-02T06:30:06.383Z,1012.19
2019-01-02T06:31:06.395Z,1012.23
2019-01-02T06:32:06.417Z,1012.26
2019-01-02T06:33:06.434Z,1012.26
2019-01-02T06:34:06.452Z,1012.3
2019-01-02T06:35:06.466Z,1012.25
2019-01-02T06:36:06.480Z,1012.21
2019-01-02T06:37:06.499Z,1012.27
2019-01-02T06:38:06.521Z,1012.18
2019-01-02T06:39:06.533Z,1012.24
2019-01-02T06:40:06.554Z,1012.25
2019-01-02T06:41:06.568Z,1012.26
2019-01-02T06:42:06.584Z,1012.29
2019-01-02T06:43:06.605Z,1012.29
2019-01-02T06:44:06.619Z,1012.27
2019-01-02T06:45:06.640Z,1012.28
2019-01-02T06:46:06.657Z,1012.3
2019-01-02T06:47:06.675Z,1012.26
2019-01-02T06:48:06.693Z,1012.31
2019-01-02T06:49:06.704Z,1012.3
2019-01-02T06:50:06.724Z,1012.31
2019-01-02T06:51:06.739Z,1012.32
2019-01-02T06:52:06.758Z,1012.33
2019-01-02T06:53:06.777Z,1012.36
2019-01-02T06:54:06.791Z,1012.36
2019-01-02T06:55:06.807Z,1012.35
2019-01-02T06:56:06.829Z,1012.43
2019-01-02T06:57:06.845Z,1012.43
2019-01-02T06:58:06.864Z,1012.43
2019-01-02T06:59:06.877Z,1012.47
2019-01-02T07:00:06.895Z,1012.46
2019-01-02T07:01:06.910Z,1012.43
2019-01-02T07:02:06.928Z,1012.51
2019-01-02T07:03:06.946Z,1012.48
2019-01-02T07:04:06.967Z,1012.55
2019-01-02T07:05:06.985Z,1012.51
2019-01-02T07:06:07.003Z,1012.57
2019-01-02T07:07:07.020Z,1012.58
2019-01-02T07:08:07.039Z,1012.53
2019-01-02T07:09:07.049Z,1012.57
2019-01-02T07:10:07.070Z,1012.59
2019-01-02T07:11:07.084Z,1012.58
2019-01-02T07:12:07.101Z,1012.56
2019-01-02T07:13:07.118Z,1012.62
2019-01-02T07:14:07.142Z,1012.55
2019-01-02T07:15:07.156Z,1012.54
2019-01-02T07:16:07.175Z,1012.53
2019-01-02T07:17:07.191Z,1012.52
2019-01-02T07:18:07.209Z,1012.53
2019-01-02T07:19:07.223Z,1012.53
2019-01-02T07:20:07.238Z,1012.58
2019-01-02T07:21:07.256Z,1012.65
2019-01-02T07:22:07.276Z,1012.67
2019-01-02T07:23:07.294Z,1012.65
2019-01-02T07:24:07.312Z,1012.68
2019-01-02T07:25:07.329Z,1012.71
2019-01-02T07:26:07.343Z,1012.76
2019-01-02T07:27:07.363Z,1012.78
2019-01-02T07:28:07.377Z,1012.77
2019-01-02T07:29:07.394Z,1012.82
2019-01-02T07:30:07.414Z,1012.81
2019-01-02T07:31:07.428Z,1012.82
2019-01-02T07:32:07.447Z,1012.85
2019-01-02T07:33:07.467Z,1012.87
2019-01-02T07:34:07.496Z,1012.88
2019-01-02T07:35:07.501Z,1012.92
2019-01-02T07:36:07.520Z,1012.93
2019-01-02T07:37:07.534Z,1013
2019-01-02T07:38:07.548Z,1013.02
2019-01-02T07:39:07.571Z,1013.03
2019-01-02T07:40:07.583Z,1013.02
2019-01-02T07:41:07.606Z,1013.04
2019-01-02T07:42:07.617Z,1013.03
2019-01-02T07:43:07.640Z,1013.09
2019-01-02T07:44:07.651Z,1013.13
2019-01-02T07:45:07.670Z,1013.06
2019-01-02T07:46:07.691Z,1013.17
2019-01-02T07:47:07.708Z,1013.15
2019-01-02T07:48:07.721Z,1013.16
2019-01-02T07:49:07.738Z,1013.2
2019-01-02T07:50:07.760Z,1013.16
2019-01-02T07:51:07.778Z,1013.2
2019-01-02T07:52:07.794Z,1013.25
2019-01-02T07:53:07.811Z,1013.28
2019-01-02T07:54:07.824Z,1013.27
2019-01-02T07:55:07.839Z,1013.29
2019-01-02T07:56:07.857Z,1013.34
2019-01-02T07:57:07.875Z,1013.38
2019-01-02T07:58:07.897Z,1013.47
2019-01-02T07:59:07.910Z,1013.51
2019-01-02T08:00:07.926Z,1013.58
2019-01-02T08:01:07.944Z,1013.57
2019-01-02T08:02:07.960Z,1013.55
2019-01-02T08:03:07.985Z,1013.6
2019-01-02T08:04:07.995Z,1013.57
2019-01-02T08:05:08.017Z,1013.66
2019-01-02T08:06:08.034Z,1013.71
2019-01-02T08:07:08.047Z,1013.73
2019-01-02T08:08:08.065Z,1013.72
2019-01-02T08:09:08.084Z,1013.73
2019-01-02T08:10:08.102Z,1013.75
2019-01-02T08:11:08.116Z,1013.84
2019-01-02T08:12:08.132Z,1013.76
2019-01-02T08:13:08.152Z,1013.77
2019-01-02T08:14:08.167Z,1013.79
2019-01-02T08:15:08.184Z,1013.8
2019-01-02T08:16:08.200Z,1013.79
2019-01-02T08:17:08.221Z,1013.8
2019-01-02T08:18:08.235Z,1013.85
2019-01-02T08:19:08.256Z,1013.89
2019-01-02T08:20:08.269Z,1013.87
2019-01-02T08:21:08.285Z,1013.87
2019-01-02T08:22:08.307Z,1013.88
2019-01-02T08:23:08.322Z,1013.89
2019-01-02T08:24:08.340Z,1013.91
2019-01-02T08:25:08.361Z,1013.91
2019-01-02T08:26:08.372Z,1013.88
2019-01-02T08:27:08.388Z,1013.87
2019-01-02T08:28:08.405Z,1013.91
2019-01-02T08:29:08.428Z,1013.92
2019-01-02T08:30:08.440Z,1013.91
2019-01-02T08:31:08.462Z,1013.92
2019-01-02T08:32:08.480Z,1013.91
2019-01-02T08:33:08.492Z,1013.91
2019-01-02T08:34:08.514Z,1013.96
2019-01-02T08:35:08.527Z,1013.94
2019-01-02T08:36:08.547Z,1013.99
2019-01-02T08:37:08.573Z,1014.02
2019-01-02T08:38:08.580Z,1014
2019-01-02T08:39:08.595Z,1014.08
2019-01-02T08:40:08.616Z,1014.03
2019-01-02T08:41:08.631Z,1014.15
2019-01-02T08:42:08.647Z,1014.11
2019-01-02T08:43:08.668Z,1014.18
2019-01-02T08:44:08.682Z,1014.15
2019-01-02T08:45:08.703Z,1014.18
2019-01-02T08:46:08.719Z,1014.21
2019-01-02T08:47:08.737Z,1014.19
2019-01-02T08:48:08.750Z,1014.22
2019-01-02T08:49:08.772Z,1014.28
2019-01-02T08:50:08.792Z,1014.21
2019-01-02T08:51:08.800Z,1014.29
2019-01-02T08:52:08.818Z,1014.3
2019-01-02T08:53:08.839Z,1014.35
2019-01-02T08:54:08.859Z,1014.37
2019-01-02T08:55:08.871Z,1014.31
2019-01-02T08:56:08.890Z,1014.36
2019-01-02T08:57:08.903Z,1014.4
2019-01-02T08:58:08.921Z,1014.45
2019-01-02T08:59:08.943Z,1014.45
2019-01-02T09:00:08.957Z,1014.42
2019-01-02T09:01:08.976Z,1014.46
2019-01-02T09:02:08.995Z,1014.46
2019-01-02T09:03:09.012Z,1014.51
2019-01-02T09:04:09.029Z,1014.49
2019-01-02T09:05:09.045Z,1014.56
2019-01-02T09:06:09.058Z,1014.57
2019-01-02T09:07:09.077Z,1014.56
2019-01-02T09:08:09.092Z,1014.53
2019-01-02T09:09:10.083Z,1014.57
2019-01-02T09:10:09.128Z,1014.56
2019-01-02T09:11:09.145Z,1014.56
2019-01-02T09:12:09.166Z,1014.63
2019-01-02T09:13:09.177Z,1014.57
2019-01-02T09:14:09.195Z,1014.57
2019-01-02T09:15:10.065Z,1014.63
2019-01-02T09:16:09.235Z,1014.62
2019-01-02T09:17:09.249Z,1014.7
2019-01-02T09:18:09.264Z,1014.67
2019-01-02T09:19:09.281Z,1014.73
2019-01-02T09:20:09.300Z,1014.72
2019-01-02T09:21:09.315Z,1014.74
2019-01-02T09:22:09.337Z,1014.7
2019-01-02T09:23:09.348Z,1014.74
2019-01-02T09:24:09.369Z,1014.79
2019-01-02T09:25:09.384Z,1014.82
2019-01-02T09:26:09.399Z,1014.82
2019-01-02T09:27:09.419Z,1014.85
2019-01-02T09:28:09.436Z,1014.89
2019-01-02T09:29:09.453Z,1014.88
2019-01-02T09:30:09.469Z,1014.9
2019-01-02T09:31:09.486Z,1014.89
2019-01-02T09:32:09.503Z,1014.91
2019-01-02T09:33:09.525Z,1014.9
2019-01-02T09:34:09.540Z,1014.92
2019-01-02T09:35:09.555Z,1014.99
2019-01-02T09:36:09.575Z,1014.96
2019-01-02T09:37:09.588Z,1014.97
2019-01-02T09:38:09.606Z,1014.94
2019-01-02T09:39:09.623Z,1015.01
2019-01-02T09:40:09.645Z,1014.97
2019-01-02T09:41:09.661Z,1015
2019-01-02T09:42:09.678Z,1014.93
2019-01-02T09:43:09.696Z,1015.01
2019-01-02T09:44:09.709Z,1015.03
2019-01-02T09:45:09.726Z,1015.08
2019-01-02T09:46:09.744Z,1015.09
2019-01-02T09:47:09.761Z,1015.01
2019-01-02T09:48:09.781Z,1014.96
2019-01-02T09:49:09.797Z,1015.11
2019-01-02T09:50:09.846Z,1015.08
2019-01-02T09:51:09.832Z,1015.11
2019-01-02T09:52:09.850Z,1015.11
2019-01-02T09:53:09.862Z,1015.11
2019-01-02T09:54:09.887Z,1015.12
2019-01-02T09:55:09.898Z,1015.13
2019-01-02T09:56:09.914Z,1015.12
2019-01-02T09:57:09.932Z,1015.14
2019-01-02T09:58:09.949Z,1015.11
2019-01-02T09:59:09.965Z,1015.12
2019-01-02T10:00:09.983Z,1015.12
2019-01-02T10:01:10.010Z,1015.11
2019-01-02T10:02:10.017Z,1015.21
2019-01-02T10:03:10.033Z,1015.18
2019-01-02T10:04:10.052Z,1015.25
2019-01-02T10:05:10.069Z,1015.24
2019-01-02T10:06:10.086Z,1015.3
2019-01-02T10:07:10.103Z,1015.25
2019-01-02T10:08:10.121Z,1015.23
2019-01-02T10:09:10.144Z,1015.25
2019-01-02T10:10:10.160Z,1015.22
2019-01-02T10:11:10.172Z,1015.19
2019-01-02T10:12:10.190Z,1015.2
2019-01-02T10:13:10.208Z,1015.23
2019-01-02T10:14:10.223Z,1015.22
2019-01-02T10:15:10.243Z,1015.15
2019-01-02T10:16:10.263Z,1015.27
2019-01-02T10:17:10.279Z,1015.16
2019-01-02T10:18:10.293Z,1015.2
2019-01-02T10:19:10.314Z,1015.13
2019-01-02T10:20:10.331Z,1015.19
2019-01-02T10:21:10.345Z,1015.17
2019-01-02T10:22:10.362Z,1015.15
2019-01-02T10:23:10.382Z,1015.2
2019-01-02T10:24:10.397Z,1015.2
2019-01-02T10:25:10.414Z,1015.28
2019-01-02T10:26:10.432Z,1015.28
2019-01-02T10:27:10.451Z,1015.25
2019-01-02T10:28:10.465Z,1015.31
2019-01-02T10:29:10.484Z,1015.31
2019-01-02T10:30:10.499Z,1015.26
2019-01-02T10:31:10.522Z,1015.28
2019-01-02T10:32:10.539Z,1015.34
2019-01-02T10:33:10.556Z,1015.33
2019-01-02T10:34:10.568Z,1015.29
2019-01-02T10:35:10.586Z,1015.32
2019-01-02T10:36:10.604Z,1015.37
2019-01-02T10:37:10.620Z,1015.32
2019-01-02T10:38:10.638Z,1015.33
2019-01-02T10:39:10.658Z,1015.31
2019-01-02T10:40:10.673Z,1015.3
2019-01-02T10:41:10.694Z,1015.35
2019-01-02T10:42:10.891Z,1015.47
2019-01-02T10:43:10.744Z,1015.43
2019-01-02T10:44:10.744Z,1015.35
2019-01-02T10:45:10.762Z,1015.42
2019-01-02T10:46:10.776Z,1015.36
2019-01-02T10:47:10.796Z,1015.4
2019-01-02T10:48:10.809Z,1015.43
2019-01-02T10:49:10.828Z,1015.5
2019-01-02T10:50:10.843Z,1015.45
2019-01-02T10:51:10.860Z,1015.4
2019-01-02T10:52:10.881Z,1015.44
2019-01-02T10:53:10.896Z,1015.43
2019-01-02T10:54:10.916Z,1015.45
2019-01-02T10:55:10.930Z,1015.37
2019-01-02T10:56:10.948Z,1015.39
2019-01-02T10:57:10.965Z,1015.42
2019-01-02T10:58:10.981Z,1015.4
2019-01-02T10:59:10.998Z,1015.41
2019-01-02T11:00:11.017Z,1015.4
2019-01-02T11:01:11.036Z,1015.4
2019-01-02T11:02:11.051Z,1015.5
2019-01-02T11:03:11.071Z,1015.53
2019-01-02T11:04:11.085Z,1015.5
2019-01-02T11:05:11.105Z,1015.52
2019-01-02T11:06:11.120Z,1015.59
2019-01-02T11:07:11.135Z,1015.54
2019-01-02T11:08:13.536Z,1015.56
2019-01-02T11:09:11.170Z,1015.55
2019-01-02T11:10:11.188Z,1015.53
2019-01-02T11:11:11.206Z,1015.55
2019-01-02T11:12:11.225Z,1015.55
2019-01-02T11:13:11.240Z,1015.54
2019-01-02T11:14:11.256Z,1015.56
2019-01-02T11:15:11.278Z,1015.54
2019-01-02T11:16:11.293Z,1015.55
2019-01-02T11:17:11.307Z,1015.62
2019-01-02T11:18:11.326Z,1015.51
2019-01-02T11:19:11.344Z,1015.6
2019-01-02T11:20:11.360Z,1015.56
2019-01-02T11:21:11.377Z,1015.59
2019-01-02T11:22:11.449Z,1015.58
2019-01-02T11:23:11.410Z,1015.61
2019-01-02T11:24:11.429Z,1015.62
2019-01-02T11:25:11.462Z,1015.59
2019-01-02T11:26:11.461Z,1015.58
2019-01-02T11:27:11.479Z,1015.57
2019-01-02T11:28:11.501Z,1015.62
2019-01-02T11:29:11.518Z,1015.65
2019-01-02T11:30:11.532Z,1015.65
2019-01-02T11:31:11.554Z,1015.69
2019-01-02T11:32:11.612Z,1015.66
2019-01-02T11:33:11.582Z,1015.62
2019-01-02T11:34:11.601Z,1015.62
2019-01-02T11:35:11.617Z,1015.65
2019-01-02T11:36:11.634Z,1015.67
2019-01-02T11:37:11.652Z,1015.64
2019-01-02T11:38:11.669Z,1015.66
2019-01-02T11:39:11.686Z,1015.68
2019-01-02T11:40:11.703Z,1015.66
2019-01-02T11:41:11.724Z,1015.68
2019-01-02T11:42:11.737Z,1015.69
2019-01-02T11:43:11.760Z,1015.73
2019-01-02T11:44:11.773Z,1015.68
2019-01-02T11:45:11.797Z,1015.67
2019-01-02T11:46:11.805Z,1015.7
2019-01-02T11:47:11.824Z,1015.67
2019-01-02T11:48:11.841Z,1015.62
2019-01-02T11:49:11.858Z,1015.68
2019-01-02T11:50:11.876Z,1015.67
2019-01-02T11:51:11.893Z,1015.71
2019-01-02T11:52:11.910Z,1015.77
2019-01-02T11:53:11.928Z,1015.77
2019-01-02T11:54:11.953Z,1015.81
2019-01-02T11:55:11.961Z,1015.77
2019-01-02T11:56:11.982Z,1015.81
2019-01-02T11:57:11.995Z,1015.7
2019-01-02T11:58:12.013Z,1015.74
2019-01-02T11:59:12.030Z,1015.8
2019-01-02T12:00:12.046Z,1015.76
2019-01-02T12:01:12.065Z,1015.77
2019-01-02T12:02:12.083Z,1015.73
2019-01-02T12:03:12.104Z,1015.79
2019-01-02T12:04:12.119Z,1015.82
2019-01-02T12:05:12.136Z,1015.8
2019-01-02T12:06:12.152Z,1015.8
2019-01-02T12:07:12.169Z,1015.82
2019-01-02T12:08:12.186Z,1015.79
2019-01-02T12:09:12.208Z,1015.8
2019-01-02T12:10:12.223Z,1015.8